sensor_id;sensor_type;location;lat;lon;timestamp;temperature;humidity
58809;DHT22;44579;51.672;7.834;2023-02-15T00:00:26;3.50;90.40
58809;DHT22;44579;51.672;7.834;2023-02-15T00:02:53;3.40;90.30
58809;DHT22;44579;51.672;7.834;2023-02-15T00:05:21;3.40;90.30
58809;DHT22;44579;51.672;7.834;2023-02-15T00:07:48;3.40;90.30
58809;DHT22;44579;51.672;7.834;2023-02-15T00:10:15;3.40;90.30
58809;DHT22;44579;51.672;7.834;2023-02-15T00:12:42;3.40;90.30
58809;DHT22;44579;51.672;7.834;2023-02-15T00:15:09;3.30;90.30
58809;DHT22;44579;51.672;7.834;2023-02-15T00:17:37;3.30;90.30
58809;DHT22;44579;51.672;7.834;2023-02-15T00:20:05;3.30;90.30
58809;DHT22;44579;51.672;7.834;2023-02-15T00:22:32;3.20;90.40
58809;DHT22;44579;51.672;7.834;2023-02-15T00:24:59;3.20;90.40
58809;DHT22;44579;51.672;7.834;2023-02-15T00:27:26;3.20;90.40
58809;DHT22;44579;51.672;7.834;2023-02-15T00:29:53;3.10;90.40
58809;DHT22;44579;51.672;7.834;2023-02-15T00:32:19;3.10;90.40
58809;DHT22;44579;51.672;7.834;2023-02-15T00:34:46;3.20;90.40
58809;DHT22;44579;51.672;7.834;2023-02-15T00:37:13;3.10;90.30
58809;DHT22;44579;51.672;7.834;2023-02-15T00:39:40;3.10;90.30
58809;DHT22;44579;51.672;7.834;2023-02-15T00:42:09;3.10;90.30
58809;DHT22;44579;51.672;7.834;2023-02-15T00:44:36;3.00;90.30
58809;DHT22;44579;51.672;7.834;2023-02-15T00:47:03;3.00;90.40
58809;DHT22;44579;51.672;7.834;2023-02-15T00:49:30;2.90;90.30
58809;DHT22;44579;51.672;7.834;2023-02-15T00:51:56;2.90;90.40
58809;DHT22;44579;51.672;7.834;2023-02-15T00:54:23;2.90;90.40
58809;DHT22;44579;51.672;7.834;2023-02-15T00:56:50;2.90;90.40
58809;DHT22;44579;51.672;7.834;2023-02-15T00:59:17;2.90;90.40
58809;DHT22;44579;51.672;7.834;2023-02-15T01:01:46;2.80;90.40
58809;DHT22;44579;51.672;7.834;2023-02-15T01:04:13;2.80;90.40
58809;DHT22;44579;51.672;7.834;2023-02-15T01:06:40;2.80;90.40
58809;DHT22;44579;51.672;7.834;2023-02-15T01:09:08;2.80;90.40
58809;DHT22;44579;51.672;7.834;2023-02-15T01:11:36;2.80;90.30
58809;DHT22;44579;51.672;7.834;2023-02-15T01:14:02;2.80;90.30
58809;DHT22;44579;51.672;7.834;2023-02-15T01:16:29;2.80;90.40
58809;DHT22;44579;51.672;7.834;2023-02-15T01:18:58;2.80;90.30
58809;DHT22;44579;51.672;7.834;2023-02-15T01:21:25;2.70;90.40
58809;DHT22;44579;51.672;7.834;2023-02-15T01:23:52;2.70;90.40
58809;DHT22;44579;51.672;7.834;2023-02-15T01:26:19;2.70;90.30
58809;DHT22;44579;51.672;7.834;2023-02-15T01:28:46;2.70;90.30
58809;DHT22;44579;51.672;7.834;2023-02-15T01:31:14;2.70;90.30
58809;DHT22;44579;51.672;7.834;2023-02-15T01:33:44;2.60;90.30
58809;DHT22;44579;51.672;7.834;2023-02-15T01:36:11;2.60;90.30
58809;DHT22;44579;51.672;7.834;2023-02-15T01:38:38;2.60;90.40
58809;DHT22;44579;51.672;7.834;2023-02-15T01:41:06;2.50;90.40
58809;DHT22;44579;51.672;7.834;2023-02-15T01:43:54;2.50;90.40
58809;DHT22;44579;51.672;7.834;2023-02-15T01:46:22;2.40;90.40
58809;DHT22;44579;51.672;7.834;2023-02-15T01:48:52;2.40;90.50
58809;DHT22;44579;51.672;7.834;2023-02-15T01:51:21;2.40;90.50
58809;DHT22;44579;51.672;7.834;2023-02-15T01:54:23;2.40;90.50
58809;DHT22;44579;51.672;7.834;2023-02-15T01:56:42;2.40;90.50
58809;DHT22;44579;51.672;7.834;2023-02-15T01:59:11;2.40;90.40
58809;DHT22;44579;51.672;7.834;2023-02-15T02:01:38;2.40;90.40
58809;DHT22;44579;51.672;7.834;2023-02-15T02:06:35;2.40;90.40
58809;DHT22;44579;51.672;7.834;2023-02-15T02:09:05;2.40;90.40
58809;DHT22;44579;51.672;7.834;2023-02-15T02:11:32;2.40;90.40
58809;DHT22;44579;51.672;7.834;2023-02-15T02:13:59;2.40;90.40
58809;DHT22;44579;51.672;7.834;2023-02-15T02:21:51;2.30;90.40
58809;DHT22;44579;51.672;7.834;2023-02-15T02:24:35;2.30;90.40
58809;DHT22;44579;51.672;7.834;2023-02-15T02:27:12;2.30;90.40
58809;DHT22;44579;51.672;7.834;2023-02-15T02:35:10;2.20;90.40
58809;DHT22;44579;51.672;7.834;2023-02-15T02:40:25;2.10;90.40
58809;DHT22;44579;51.672;7.834;2023-02-15T02:43:01;2.10;90.40
58809;DHT22;44579;51.672;7.834;2023-02-15T02:45:33;2.10;90.50
58809;DHT22;44579;51.672;7.834;2023-02-15T02:48:04;2.10;90.50
58809;DHT22;44579;51.672;7.834;2023-02-15T02:50:32;2.00;90.50
58809;DHT22;44579;51.672;7.834;2023-02-15T02:52:59;2.00;90.50
58809;DHT22;44579;51.672;7.834;2023-02-15T02:55:39;2.00;90.50
58809;DHT22;44579;51.672;7.834;2023-02-15T02:58:26;2.00;90.40
58809;DHT22;44579;51.672;7.834;2023-02-15T03:03:28;2.00;90.40
58809;DHT22;44579;51.672;7.834;2023-02-15T03:05:56;2.00;90.40
58809;DHT22;44579;51.672;7.834;2023-02-15T03:08:27;2.00;90.30
58809;DHT22;44579;51.672;7.834;2023-02-15T03:10:55;2.00;90.30
58809;DHT22;44579;51.672;7.834;2023-02-15T03:13:23;2.00;90.40
58809;DHT22;44579;51.672;7.834;2023-02-15T03:15:50;1.90;90.40
58809;DHT22;44579;51.672;7.834;2023-02-15T03:18:46;1.90;90.40
58809;DHT22;44579;51.672;7.834;2023-02-15T03:21:21;1.90;90.50
58809;DHT22;44579;51.672;7.834;2023-02-15T03:23:52;1.80;90.40
58809;DHT22;44579;51.672;7.834;2023-02-15T03:26:21;1.80;90.50
58809;DHT22;44579;51.672;7.834;2023-02-15T03:28:49;1.80;90.50
58809;DHT22;44579;51.672;7.834;2023-02-15T03:31:18;1.80;90.50
58809;DHT22;44579;51.672;7.834;2023-02-15T03:33:55;1.80;90.50
58809;DHT22;44579;51.672;7.834;2023-02-15T03:36:28;1.80;90.50
58809;DHT22;44579;51.672;7.834;2023-02-15T03:41:34;1.80;90.40
58809;DHT22;44579;51.672;7.834;2023-02-15T03:44:09;1.70;90.40
58809;DHT22;44579;51.672;7.834;2023-02-15T03:49:25;1.70;90.40
58809;DHT22;44579;51.672;7.834;2023-02-15T03:51:54;1.70;90.40
58809;DHT22;44579;51.672;7.834;2023-02-15T03:54:23;1.70;90.30
58809;DHT22;44579;51.672;7.834;2023-02-15T03:57:17;1.70;90.30
58809;DHT22;44579;51.672;7.834;2023-02-15T04:00:15;1.70;90.30
58809;DHT22;44579;51.672;7.834;2023-02-15T04:03:06;1.60;90.30
58809;DHT22;44579;51.672;7.834;2023-02-15T04:05:33;1.60;90.40
58809;DHT22;44579;51.672;7.834;2023-02-15T04:08:01;1.60;90.80
58809;DHT22;44579;51.672;7.834;2023-02-15T04:10:28;1.50;90.40
58809;DHT22;44579;51.672;7.834;2023-02-15T04:13:14;1.50;90.40
58809;DHT22;44579;51.672;7.834;2023-02-15T04:15:40;1.50;90.50
58809;DHT22;44579;51.672;7.834;2023-02-15T04:18:26;1.50;90.40
58809;DHT22;44579;51.672;7.834;2023-02-15T04:21:12;1.40;90.40
58809;DHT22;44579;51.672;7.834;2023-02-15T04:23:58;1.40;90.50
58809;DHT22;44579;51.672;7.834;2023-02-15T04:26:43;1.40;90.50
58809;DHT22;44579;51.672;7.834;2023-02-15T04:29:10;1.40;90.40
58809;DHT22;44579;51.672;7.834;2023-02-15T04:31:37;1.40;90.40
58809;DHT22;44579;51.672;7.834;2023-02-15T04:34:04;1.40;90.50
58809;DHT22;44579;51.672;7.834;2023-02-15T04:36:31;1.30;90.40
58809;DHT22;44579;51.672;7.834;2023-02-15T04:38:58;1.30;90.50
58809;DHT22;44579;51.672;7.834;2023-02-15T04:41:25;1.30;90.50
58809;DHT22;44579;51.672;7.834;2023-02-15T04:43:51;1.30;90.40
58809;DHT22;44579;51.672;7.834;2023-02-15T04:46:18;1.30;90.40
58809;DHT22;44579;51.672;7.834;2023-02-15T04:48:45;1.30;90.40
58809;DHT22;44579;51.672;7.834;2023-02-15T04:51:12;1.30;90.40
58809;DHT22;44579;51.672;7.834;2023-02-15T04:53:38;1.20;90.40
58809;DHT22;44579;51.672;7.834;2023-02-15T04:56:05;1.20;90.40
58809;DHT22;44579;51.672;7.834;2023-02-15T04:58:35;1.20;90.40
58809;DHT22;44579;51.672;7.834;2023-02-15T05:01:03;1.20;90.40
58809;DHT22;44579;51.672;7.834;2023-02-15T05:03:30;1.20;90.40
58809;DHT22;44579;51.672;7.834;2023-02-15T05:05:56;1.20;90.30
58809;DHT22;44579;51.672;7.834;2023-02-15T05:08:23;1.20;90.40
58809;DHT22;44579;51.672;7.834;2023-02-15T05:10:50;1.20;90.30
58809;DHT22;44579;51.672;7.834;2023-02-15T05:13:17;1.20;90.30
58809;DHT22;44579;51.672;7.834;2023-02-15T05:15:48;1.20;90.30
58809;DHT22;44579;51.672;7.834;2023-02-15T05:18:16;1.20;90.30
58809;DHT22;44579;51.672;7.834;2023-02-15T05:20:44;1.20;90.30
58809;DHT22;44579;51.672;7.834;2023-02-15T05:23:11;1.20;90.30
58809;DHT22;44579;51.672;7.834;2023-02-15T05:25:38;1.10;90.30
58809;DHT22;44579;51.672;7.834;2023-02-15T05:28:23;1.10;90.40
58809;DHT22;44579;51.672;7.834;2023-02-15T05:31:04;1.10;90.40
58809;DHT22;44579;51.672;7.834;2023-02-15T05:33:32;1.10;90.40
58809;DHT22;44579;51.672;7.834;2023-02-15T05:35:59;1.10;90.40
58809;DHT22;44579;51.672;7.834;2023-02-15T05:38:28;1.10;90.40
58809;DHT22;44579;51.672;7.834;2023-02-15T05:40:54;1.10;90.30
58809;DHT22;44579;51.672;7.834;2023-02-15T05:43:22;1.00;90.30
58809;DHT22;44579;51.672;7.834;2023-02-15T05:45:49;1.00;90.40
58809;DHT22;44579;51.672;7.834;2023-02-15T05:48:17;1.00;90.40
58809;DHT22;44579;51.672;7.834;2023-02-15T05:50:44;1.00;90.40
58809;DHT22;44579;51.672;7.834;2023-02-15T05:53:11;0.90;90.40
58809;DHT22;44579;51.672;7.834;2023-02-15T05:55:38;0.90;90.50
58809;DHT22;44579;51.672;7.834;2023-02-15T05:58:05;0.90;90.50
58809;DHT22;44579;51.672;7.834;2023-02-15T06:00:32;0.90;90.50
58809;DHT22;44579;51.672;7.834;2023-02-15T06:02:59;0.90;90.50
58809;DHT22;44579;51.672;7.834;2023-02-15T06:05:26;0.90;90.50
58809;DHT22;44579;51.672;7.834;2023-02-15T06:07:53;0.90;90.50
58809;DHT22;44579;51.672;7.834;2023-02-15T06:10:20;0.90;90.50
58809;DHT22;44579;51.672;7.834;2023-02-15T06:12:47;0.90;90.50
58809;DHT22;44579;51.672;7.834;2023-02-15T06:15:14;0.90;90.50
58809;DHT22;44579;51.672;7.834;2023-02-15T06:17:41;0.90;90.50
58809;DHT22;44579;51.672;7.834;2023-02-15T06:20:09;0.90;90.40
58809;DHT22;44579;51.672;7.834;2023-02-15T06:22:36;0.90;90.40
58809;DHT22;44579;51.672;7.834;2023-02-15T06:25:03;0.90;90.40
58809;DHT22;44579;51.672;7.834;2023-02-15T06:27:30;0.80;90.40
58809;DHT22;44579;51.672;7.834;2023-02-15T06:29:56;0.80;90.40
58809;DHT22;44579;51.672;7.834;2023-02-15T06:32:23;0.80;90.40
58809;DHT22;44579;51.672;7.834;2023-02-15T06:34:50;0.80;90.40
58809;DHT22;44579;51.672;7.834;2023-02-15T06:37:17;0.80;90.40
58809;DHT22;44579;51.672;7.834;2023-02-15T06:39:44;0.80;90.40
58809;DHT22;44579;51.672;7.834;2023-02-15T06:42:11;0.80;90.50
58809;DHT22;44579;51.672;7.834;2023-02-15T06:44:38;0.70;90.50
58809;DHT22;44579;51.672;7.834;2023-02-15T06:47:05;0.80;90.90
58809;DHT22;44579;51.672;7.834;2023-02-15T06:49:32;0.70;90.50
58809;DHT22;44579;51.672;7.834;2023-02-15T06:52:01;0.70;90.50
58809;DHT22;44579;51.672;7.834;2023-02-15T06:54:28;0.70;90.60
58809;DHT22;44579;51.672;7.834;2023-02-15T06:56:57;0.70;90.60
58809;DHT22;44579;51.672;7.834;2023-02-15T06:59:24;0.70;90.50
58809;DHT22;44579;51.672;7.834;2023-02-15T07:01:50;0.70;90.60
58809;DHT22;44579;51.672;7.834;2023-02-15T07:04:17;0.80;90.60
58809;DHT22;44579;51.672;7.834;2023-02-15T07:06:44;0.80;90.60
58809;DHT22;44579;51.672;7.834;2023-02-15T07:09:12;0.80;90.60
58809;DHT22;44579;51.672;7.834;2023-02-15T07:11:41;0.80;90.60
58809;DHT22;44579;51.672;7.834;2023-02-15T07:14:26;0.80;90.60
58809;DHT22;44579;51.672;7.834;2023-02-15T07:16:55;0.90;90.60
58809;DHT22;44579;51.672;7.834;2023-02-15T07:19:22;0.90;90.50
58809;DHT22;44579;51.672;7.834;2023-02-15T07:21:50;0.90;90.50
58809;DHT22;44579;51.672;7.834;2023-02-15T07:24:18;1.00;90.70
58809;DHT22;44579;51.672;7.834;2023-02-15T07:26:44;1.00;90.60
58809;DHT22;44579;51.672;7.834;2023-02-15T07:29:12;1.10;90.60
58809;DHT22;44579;51.672;7.834;2023-02-15T07:31:39;1.10;90.60
58809;DHT22;44579;51.672;7.834;2023-02-15T07:34:07;1.10;90.60
58809;DHT22;44579;51.672;7.834;2023-02-15T07:36:34;1.20;90.60
58809;DHT22;44579;51.672;7.834;2023-02-15T07:39:02;1.20;90.50
58809;DHT22;44579;51.672;7.834;2023-02-15T07:41:29;1.30;90.50
58809;DHT22;44579;51.672;7.834;2023-02-15T07:43:56;1.40;90.50
58809;DHT22;44579;51.672;7.834;2023-02-15T07:46:24;1.50;90.50
58809;DHT22;44579;51.672;7.834;2023-02-15T07:48:51;1.50;90.40
58809;DHT22;44579;51.672;7.834;2023-02-15T07:51:18;1.60;90.40
58809;DHT22;44579;51.672;7.834;2023-02-15T07:53:45;1.70;90.40
58809;DHT22;44579;51.672;7.834;2023-02-15T07:56:15;1.80;90.40
58809;DHT22;44579;51.672;7.834;2023-02-15T07:58:42;1.80;90.30
58809;DHT22;44579;51.672;7.834;2023-02-15T08:01:20;1.90;90.30
58809;DHT22;44579;51.672;7.834;2023-02-15T08:03:47;2.00;90.20
58809;DHT22;44579;51.672;7.834;2023-02-15T08:06:14;2.00;90.30
58809;DHT22;44579;51.672;7.834;2023-02-15T08:08:41;2.10;90.30
58809;DHT22;44579;51.672;7.834;2023-02-15T08:14:09;2.20;90.40
58809;DHT22;44579;51.672;7.834;2023-02-15T08:21:30;2.40;90.50
58809;DHT22;44579;51.672;7.834;2023-02-15T08:23:57;2.40;90.40
58809;DHT22;44579;51.672;7.834;2023-02-15T08:26:25;2.50;90.50
58809;DHT22;44579;51.672;7.834;2023-02-15T08:28:52;2.60;90.50
58809;DHT22;44579;51.672;7.834;2023-02-15T08:31:19;2.60;90.50
58809;DHT22;44579;51.672;7.834;2023-02-15T08:33:47;2.70;90.50
58809;DHT22;44579;51.672;7.834;2023-02-15T08:36:15;2.80;90.50
58809;DHT22;44579;51.672;7.834;2023-02-15T08:38:42;2.90;90.60
58809;DHT22;44579;51.672;7.834;2023-02-15T08:41:14;2.90;90.60
58809;DHT22;44579;51.672;7.834;2023-02-15T08:43:41;3.00;90.60
58809;DHT22;44579;51.672;7.834;2023-02-15T08:46:10;3.10;90.70
58809;DHT22;44579;51.672;7.834;2023-02-15T08:48:38;3.10;90.70
58809;DHT22;44579;51.672;7.834;2023-02-15T08:51:09;3.20;90.80
58809;DHT22;44579;51.672;7.834;2023-02-15T08:53:38;3.20;90.80
58809;DHT22;44579;51.672;7.834;2023-02-15T08:56:05;3.30;90.90
58809;DHT22;44579;51.672;7.834;2023-02-15T08:58:32;3.40;91.00
58809;DHT22;44579;51.672;7.834;2023-02-15T09:01:00;3.50;91.00
58809;DHT22;44579;51.672;7.834;2023-02-15T09:03:29;3.50;91.00
58809;DHT22;44579;51.672;7.834;2023-02-15T09:05:57;3.60;91.00
58809;DHT22;44579;51.672;7.834;2023-02-15T09:08:23;3.60;91.00
58809;DHT22;44579;51.672;7.834;2023-02-15T09:10:50;3.70;91.10
58809;DHT22;44579;51.672;7.834;2023-02-15T09:13:17;3.70;91.10
58809;DHT22;44579;51.672;7.834;2023-02-15T09:15:44;3.80;91.10
58809;DHT22;44579;51.672;7.834;2023-02-15T09:18:10;3.90;91.30
58809;DHT22;44579;51.672;7.834;2023-02-15T09:20:39;4.00;91.30
58809;DHT22;44579;51.672;7.834;2023-02-15T09:23:05;4.00;91.40
58809;DHT22;44579;51.672;7.834;2023-02-15T09:25:33;4.10;91.30
58809;DHT22;44579;51.672;7.834;2023-02-15T09:28:00;4.20;91.30
58809;DHT22;44579;51.672;7.834;2023-02-15T09:30:29;4.20;91.40
58809;DHT22;44579;51.672;7.834;2023-02-15T09:32:57;4.30;91.40
58809;DHT22;44579;51.672;7.834;2023-02-15T09:35:24;4.30;91.50
58809;DHT22;44579;51.672;7.834;2023-02-15T09:37:51;4.40;91.60
58809;DHT22;44579;51.672;7.834;2023-02-15T09:40:18;4.40;91.60
58809;DHT22;44579;51.672;7.834;2023-02-15T09:50:33;4.70;91.80
58809;DHT22;44579;51.672;7.834;2023-02-15T10:06:15;5.00;91.90
58809;DHT22;44579;51.672;7.834;2023-02-15T10:08:48;5.10;92.00
58809;DHT22;44579;51.672;7.834;2023-02-15T10:11:32;5.20;92.00
58809;DHT22;44579;51.672;7.834;2023-02-15T10:16:46;5.30;92.00
58809;DHT22;44579;51.672;7.834;2023-02-15T10:22:15;5.40;92.00
58809;DHT22;44579;51.672;7.834;2023-02-15T10:24:53;5.50;92.10
58809;DHT22;44579;51.672;7.834;2023-02-15T10:27:22;5.60;92.10
58809;DHT22;44579;51.672;7.834;2023-02-15T10:29:56;5.60;92.10
58809;DHT22;44579;51.672;7.834;2023-02-15T10:32:28;5.70;92.10
58809;DHT22;44579;51.672;7.834;2023-02-15T10:40:30;6.00;92.70
58809;DHT22;44579;51.672;7.834;2023-02-15T10:45:36;6.10;92.50
58809;DHT22;44579;51.672;7.834;2023-02-15T10:48:16;6.10;92.60
58809;DHT22;44579;51.672;7.834;2023-02-15T10:50:49;6.20;92.70
58809;DHT22;44579;51.672;7.834;2023-02-15T10:53:24;6.30;92.80
58809;DHT22;44579;51.672;7.834;2023-02-15T10:55:59;6.40;92.80
58809;DHT22;44579;51.672;7.834;2023-02-15T10:58:33;6.40;92.80
58809;DHT22;44579;51.672;7.834;2023-02-15T11:01:11;6.50;92.80
58809;DHT22;44579;51.672;7.834;2023-02-15T11:03:50;6.50;92.80
58809;DHT22;44579;51.672;7.834;2023-02-15T11:06:19;6.60;92.80
58809;DHT22;44579;51.672;7.834;2023-02-15T11:08:52;6.60;92.80
58809;DHT22;44579;51.672;7.834;2023-02-15T11:11:36;6.70;92.80
58809;DHT22;44579;51.672;7.834;2023-02-15T11:14:12;6.70;92.80
58809;DHT22;44579;51.672;7.834;2023-02-15T11:16:41;6.80;92.80
58809;DHT22;44579;51.672;7.834;2023-02-15T11:21:39;6.90;92.80
58809;DHT22;44579;51.672;7.834;2023-02-15T11:24:09;7.00;92.80
58809;DHT22;44579;51.672;7.834;2023-02-15T11:26:43;7.00;92.80
58809;DHT22;44579;51.672;7.834;2023-02-15T11:29:25;7.10;92.80
58809;DHT22;44579;51.672;7.834;2023-02-15T11:32:13;7.20;92.80
58809;DHT22;44579;51.672;7.834;2023-02-15T11:34:52;7.30;92.80
58809;DHT22;44579;51.672;7.834;2023-02-15T11:37:20;7.40;92.80
58809;DHT22;44579;51.672;7.834;2023-02-15T11:39:50;7.50;92.80
58809;DHT22;44579;51.672;7.834;2023-02-15T11:42:20;7.60;92.80
58809;DHT22;44579;51.672;7.834;2023-02-15T11:45:04;7.60;92.70
58809;DHT22;44579;51.672;7.834;2023-02-15T11:47:33;7.70;92.80
58809;DHT22;44579;51.672;7.834;2023-02-15T11:50:00;7.80;92.80
58809;DHT22;44579;51.672;7.834;2023-02-15T11:52:27;7.90;92.90
58809;DHT22;44579;51.672;7.834;2023-02-15T11:54:54;7.90;93.30
58809;DHT22;44579;51.672;7.834;2023-02-15T11:59:58;8.00;92.90
58809;DHT22;44579;51.672;7.834;2023-02-15T12:02:33;8.10;93.00
58809;DHT22;44579;51.672;7.834;2023-02-15T12:05:12;8.10;92.90
58809;DHT22;44579;51.672;7.834;2023-02-15T12:07:42;8.20;93.00
58809;DHT22;44579;51.672;7.834;2023-02-15T12:12:44;8.30;93.10
58809;DHT22;44579;51.672;7.834;2023-02-15T12:15:12;8.30;93.10
58809;DHT22;44579;51.672;7.834;2023-02-15T12:17:41;8.40;93.10
58809;DHT22;44579;51.672;7.834;2023-02-15T12:23:26;8.50;93.20
58809;DHT22;44579;51.672;7.834;2023-02-15T12:25:39;8.50;93.20
58809;DHT22;44579;51.672;7.834;2023-02-15T12:28:54;8.50;93.20
58809;DHT22;44579;51.672;7.834;2023-02-15T12:30:55;8.60;93.20
58809;DHT22;44579;51.672;7.834;2023-02-15T12:36:21;8.60;93.30
58809;DHT22;44579;51.672;7.834;2023-02-15T12:41:36;8.80;93.30
58809;DHT22;44579;51.672;7.834;2023-02-15T12:44:09;8.80;93.40
58809;DHT22;44579;51.672;7.834;2023-02-15T12:46:42;8.90;93.40
58809;DHT22;44579;51.672;7.834;2023-02-15T12:49:23;8.90;93.40
58809;DHT22;44579;51.672;7.834;2023-02-15T12:51:51;9.00;93.20
58809;DHT22;44579;51.672;7.834;2023-02-15T12:56:52;9.20;92.70
58809;DHT22;44579;51.672;7.834;2023-02-15T12:59:19;9.20;92.80
58809;DHT22;44579;51.672;7.834;2023-02-15T13:01:49;9.20;92.80
58809;DHT22;44579;51.672;7.834;2023-02-15T13:04:28;9.30;92.90
58809;DHT22;44579;51.672;7.834;2023-02-15T13:06:56;9.30;92.90
58809;DHT22;44579;51.672;7.834;2023-02-15T13:12:43;9.50;92.70
58809;DHT22;44579;51.672;7.834;2023-02-15T13:14:45;9.60;92.50
58809;DHT22;44579;51.672;7.834;2023-02-15T13:17:13;9.60;92.40
58809;DHT22;44579;51.672;7.834;2023-02-15T13:19:44;9.70;92.50
58809;DHT22;44579;51.672;7.834;2023-02-15T13:22:15;9.70;92.60
58809;DHT22;44579;51.672;7.834;2023-02-15T13:24:44;9.70;92.70
58809;DHT22;44579;51.672;7.834;2023-02-15T13:27:14;9.70;92.80
58809;DHT22;44579;51.672;7.834;2023-02-15T13:29:43;9.70;92.80
58809;DHT22;44579;51.672;7.834;2023-02-15T13:32:20;9.70;92.90
58809;DHT22;44579;51.672;7.834;2023-02-15T13:34:49;9.70;92.80
58809;DHT22;44579;51.672;7.834;2023-02-15T13:40:08;9.70;93.00
58809;DHT22;44579;51.672;7.834;2023-02-15T13:42:40;9.70;93.00
58809;DHT22;44579;51.672;7.834;2023-02-15T13:45:13;9.80;93.10
58809;DHT22;44579;51.672;7.834;2023-02-15T13:47:58;9.80;93.10
58809;DHT22;44579;51.672;7.834;2023-02-15T13:53:11;9.80;93.10
58809;DHT22;44579;51.672;7.834;2023-02-15T13:55:52;9.80;93.10
58809;DHT22;44579;51.672;7.834;2023-02-15T13:58:37;9.90;93.10
58809;DHT22;44579;51.672;7.834;2023-02-15T14:01:10;9.90;93.00
58809;DHT22;44579;51.672;7.834;2023-02-15T14:03:58;9.90;93.10
58809;DHT22;44579;51.672;7.834;2023-02-15T14:06:35;9.90;93.10
58809;DHT22;44579;51.672;7.834;2023-02-15T14:22:20;10.00;93.10
58809;DHT22;44579;51.672;7.834;2023-02-15T14:32:23;10.10;93.00
58809;DHT22;44579;51.672;7.834;2023-02-15T14:34:57;10.10;93.00
58809;DHT22;44579;51.672;7.834;2023-02-15T14:37:34;10.10;93.10
58809;DHT22;44579;51.672;7.834;2023-02-15T14:40:33;10.20;93.10
58809;DHT22;44579;51.672;7.834;2023-02-15T14:43:24;10.20;93.10
58809;DHT22;44579;51.672;7.834;2023-02-15T14:45:55;10.10;93.00
58809;DHT22;44579;51.672;7.834;2023-02-15T14:52:06;10.20;93.00
58809;DHT22;44579;51.672;7.834;2023-02-15T14:54:07;10.20;93.00
58809;DHT22;44579;51.672;7.834;2023-02-15T14:56:34;10.20;92.90
58809;DHT22;44579;51.672;7.834;2023-02-15T15:01:38;10.30;92.80
58809;DHT22;44579;51.672;7.834;2023-02-15T15:04:07;10.30;92.80
58809;DHT22;44579;51.672;7.834;2023-02-15T15:06:37;10.30;93.30
58809;DHT22;44579;51.672;7.834;2023-02-15T15:11:52;10.30;92.90
58809;DHT22;44579;51.672;7.834;2023-02-15T15:14:42;10.30;92.80
58809;DHT22;44579;51.672;7.834;2023-02-15T15:17:11;10.30;92.80
58809;DHT22;44579;51.672;7.834;2023-02-15T15:22:19;10.20;92.90
58809;DHT22;44579;51.672;7.834;2023-02-15T15:30:00;10.10;92.90
58809;DHT22;44579;51.672;7.834;2023-02-15T15:32:28;10.10;92.80
58809;DHT22;44579;51.672;7.834;2023-02-15T15:35:06;10.00;92.80
58809;DHT22;44579;51.672;7.834;2023-02-15T15:37:40;10.00;92.80
58809;DHT22;44579;51.672;7.834;2023-02-15T15:43:03;9.90;92.70
58809;DHT22;44579;51.672;7.834;2023-02-15T15:50:43;9.80;92.70
58809;DHT22;44579;51.672;7.834;2023-02-15T15:53:16;9.80;92.70
58809;DHT22;44579;51.672;7.834;2023-02-15T15:55:44;9.70;92.60
58809;DHT22;44579;51.672;7.834;2023-02-15T15:58:13;9.70;92.50
58809;DHT22;44579;51.672;7.834;2023-02-15T16:00:50;9.70;92.50
58809;DHT22;44579;51.672;7.834;2023-02-15T16:03:21;9.60;92.50
58809;DHT22;44579;51.672;7.834;2023-02-15T16:05:51;9.60;92.50
58809;DHT22;44579;51.672;7.834;2023-02-15T16:08:35;9.60;92.50
58809;DHT22;44579;51.672;7.834;2023-02-15T16:11:11;9.50;92.40
58809;DHT22;44579;51.672;7.834;2023-02-15T16:13:40;9.40;92.40
58809;DHT22;44579;51.672;7.834;2023-02-15T16:16:08;9.40;92.40
58809;DHT22;44579;51.672;7.834;2023-02-15T16:18:36;9.30;92.30
58809;DHT22;44579;51.672;7.834;2023-02-15T16:21:05;9.30;92.30
58809;DHT22;44579;51.672;7.834;2023-02-15T16:26:02;9.10;92.30
58809;DHT22;44579;51.672;7.834;2023-02-15T16:28:32;9.10;92.30
58809;DHT22;44579;51.672;7.834;2023-02-15T16:31:07;9.00;92.20
58809;DHT22;44579;51.672;7.834;2023-02-15T16:33:37;9.00;92.30
58809;DHT22;44579;51.672;7.834;2023-02-15T16:36:05;8.90;92.30
58809;DHT22;44579;51.672;7.834;2023-02-15T16:38:45;8.80;92.30
58809;DHT22;44579;51.672;7.834;2023-02-15T16:41:22;8.80;92.30
58809;DHT22;44579;51.672;7.834;2023-02-15T16:43:50;8.70;92.20
58809;DHT22;44579;51.672;7.834;2023-02-15T16:46:24;8.70;92.30
58809;DHT22;44579;51.672;7.834;2023-02-15T16:48:52;8.60;92.20
58809;DHT22;44579;51.672;7.834;2023-02-15T16:51:25;8.60;92.20
58809;DHT22;44579;51.672;7.834;2023-02-15T16:53:54;8.50;92.20
58809;DHT22;44579;51.672;7.834;2023-02-15T16:56:23;8.50;92.20
58809;DHT22;44579;51.672;7.834;2023-02-15T16:58:50;8.40;92.10
58809;DHT22;44579;51.672;7.834;2023-02-15T17:01:19;8.40;92.10
58809;DHT22;44579;51.672;7.834;2023-02-15T17:03:48;8.30;92.10
58809;DHT22;44579;51.672;7.834;2023-02-15T17:06:19;8.30;92.10
58809;DHT22;44579;51.672;7.834;2023-02-15T17:08:46;8.30;92.10
58809;DHT22;44579;51.672;7.834;2023-02-15T17:11:32;8.20;92.00
58809;DHT22;44579;51.672;7.834;2023-02-15T17:16:41;8.10;92.00
58809;DHT22;44579;51.672;7.834;2023-02-15T17:19:09;8.00;92.00
58809;DHT22;44579;51.672;7.834;2023-02-15T17:21:41;8.00;92.00
58809;DHT22;44579;51.672;7.834;2023-02-15T17:24:14;8.00;92.00
58809;DHT22;44579;51.672;7.834;2023-02-15T17:26:42;7.90;91.90
58809;DHT22;44579;51.672;7.834;2023-02-15T17:31:55;7.80;91.90
58809;DHT22;44579;51.672;7.834;2023-02-15T17:37:11;7.70;91.90
58809;DHT22;44579;51.672;7.834;2023-02-15T17:39:38;7.70;91.90
58809;DHT22;44579;51.672;7.834;2023-02-15T17:42:07;7.60;91.80
58809;DHT22;44579;51.672;7.834;2023-02-15T17:44:34;7.60;91.90
58809;DHT22;44579;51.672;7.834;2023-02-15T17:47:00;7.60;91.90
58809;DHT22;44579;51.672;7.834;2023-02-15T17:49:27;7.50;91.80
58809;DHT22;44579;51.672;7.834;2023-02-15T17:52:00;7.50;92.20
58809;DHT22;44579;51.672;7.834;2023-02-15T17:54:28;7.50;91.80
58809;DHT22;44579;51.672;7.834;2023-02-15T17:57:14;7.50;91.80
58809;DHT22;44579;51.672;7.834;2023-02-15T17:59:41;7.50;91.80
58809;DHT22;44579;51.672;7.834;2023-02-15T18:02:27;7.40;91.70
58809;DHT22;44579;51.672;7.834;2023-02-15T18:05:16;7.40;91.70
58809;DHT22;44579;51.672;7.834;2023-02-15T18:08:02;7.40;91.70
58809;DHT22;44579;51.672;7.834;2023-02-15T18:10:47;7.40;91.60
58809;DHT22;44579;51.672;7.834;2023-02-15T18:13:33;7.40;91.60
58809;DHT22;44579;51.672;7.834;2023-02-15T18:16:00;7.30;91.60
58809;DHT22;44579;51.672;7.834;2023-02-15T18:18:27;7.30;91.60
58809;DHT22;44579;51.672;7.834;2023-02-15T18:20:54;7.30;91.60
58809;DHT22;44579;51.672;7.834;2023-02-15T18:23:21;7.30;91.60
58809;DHT22;44579;51.672;7.834;2023-02-15T18:25:48;7.30;91.90
58809;DHT22;44579;51.672;7.834;2023-02-15T18:28:15;7.20;91.50
58809;DHT22;44579;51.672;7.834;2023-02-15T18:30:42;7.20;91.50
58809;DHT22;44579;51.672;7.834;2023-02-15T18:33:24;7.20;91.60
58809;DHT22;44579;51.672;7.834;2023-02-15T18:35:55;7.20;91.60